Lafontaine, Canada
Current Conditions -  °F | °C
As of 11:00 AM on Saturday 22 Nov 2014 (Local Time) from CYMX Reporting Station
Overcast Overcast  
Wind Chill: 17°   Ceiling: 4000
Heat Index: 28°   Visibility: 25mi
Dew Point: 18°   Wind: 16mph
Humidity: 64%   Direction: 220°SW
Pressure: 30.04"   Gusts: 26mph
Location:  45.8°N, 74.02°W
Report Text: CYMX 221600Z 22014G23KT 190V250 25SM SCT025 BKN040 BKN120 OVC210 M02/M08 A3004 RMK SC3SC2AC1CI2 SLP177
Loading
Personal Weather Stations






























Interactive Weather Map New forecast layout! Learn more

10-Day Weather Forecast

Advertisements
Track Severe Weather on mobile